sensor_id;sensor_type;location;lat;lon;timestamp;P1;durP1;ratioP1;P2;durP2;ratioP2
72273;SDS011;60208;48.692;8.948;2023-11-22T00:01:34;8.98;;;7.35;;
72273;SDS011;60208;48.692;8.948;2023-11-22T00:03:59;10.93;;;7.90;;
72273;SDS011;60208;48.692;8.948;2023-11-22T00:06:25;10.88;;;8.48;;
72273;SDS011;60208;48.692;8.948;2023-11-22T00:08:55;12.48;;;8.52;;
72273;SDS011;60208;48.692;8.948;2023-11-22T00:11:20;12.40;;;9.38;;
72273;SDS011;60208;48.692;8.948;2023-11-22T00:13:45;14.93;;;9.60;;
72273;SDS011;60208;48.692;8.948;2023-11-22T00:16:11;12.48;;;8.90;;
72273;SDS011;60208;48.692;8.948;2023-11-22T00:18:36;13.75;;;9.55;;
72273;SDS011;60208;48.692;8.948;2023-11-22T00:21:02;11.88;;;9.10;;
72273;SDS011;60208;48.692;8.948;2023-11-22T00:23:28;15.70;;;9.77;;
72273;SDS011;60208;48.692;8.948;2023-11-22T00:25:55;11.82;;;8.10;;
72273;SDS011;60208;48.692;8.948;2023-11-22T00:28:21;5.05;;;2.90;;
72273;SDS011;60208;48.692;8.948;2023-11-22T00:30:48;3.38;;;2.70;;
72273;SDS011;60208;48.692;8.948;2023-11-22T00:33:13;2.83;;;2.35;;
72273;SDS011;60208;48.692;8.948;2023-11-22T00:35:39;2.60;;;2.40;;
72273;SDS011;60208;48.692;8.948;2023-11-22T00:38:05;2.30;;;2.10;;
72273;SDS011;60208;48.692;8.948;2023-11-22T00:40:31;2.60;;;1.98;;
72273;SDS011;60208;48.692;8.948;2023-11-22T00:42:56;2.63;;;2.38;;
72273;SDS011;60208;48.692;8.948;2023-11-22T00:45:23;3.03;;;2.47;;
72273;SDS011;60208;48.692;8.948;2023-11-22T00:47:48;3.10;;;2.80;;
72273;SDS011;60208;48.692;8.948;2023-11-22T00:50:15;3.50;;;2.90;;
72273;SDS011;60208;48.692;8.948;2023-11-22T00:52:44;4.88;;;3.53;;
72273;SDS011;60208;48.692;8.948;2023-11-22T00:55:10;4.03;;;3.45;;
72273;SDS011;60208;48.692;8.948;2023-11-22T00:57:36;3.90;;;3.50;;
72273;SDS011;60208;48.692;8.948;2023-11-22T01:00:02;4.20;;;3.58;;
72273;SDS011;60208;48.692;8.948;2023-11-22T01:02:29;4.57;;;3.70;;
72273;SDS011;60208;48.692;8.948;2023-11-22T01:04:55;4.95;;;4.20;;
72273;SDS011;60208;48.692;8.948;2023-11-22T01:07:20;6.60;;;4.60;;
72273;SDS011;60208;48.692;8.948;2023-11-22T01:09:45;5.53;;;4.72;;
72273;SDS011;60208;48.692;8.948;2023-11-22T01:12:11;5.20;;;4.70;;
72273;SDS011;60208;48.692;8.948;2023-11-22T01:14:37;5.40;;;4.22;;
72273;SDS011;60208;48.692;8.948;2023-11-22T01:17:03;4.90;;;3.92;;
72273;SDS011;60208;48.692;8.948;2023-11-22T01:19:28;5.45;;;3.83;;
72273;SDS011;60208;48.692;8.948;2023-11-22T01:21:54;5.07;;;4.40;;
72273;SDS011;60208;48.692;8.948;2023-11-22T01:24:19;5.30;;;4.30;;
72273;SDS011;60208;48.692;8.948;2023-11-22T01:26:45;5.10;;;4.53;;
72273;SDS011;60208;48.692;8.948;2023-11-22T01:29:10;4.85;;;4.20;;
72273;SDS011;60208;48.692;8.948;2023-11-22T01:31:37;5.30;;;4.65;;
72273;SDS011;60208;48.692;8.948;2023-11-22T01:34:02;5.75;;;4.97;;
72273;SDS011;60208;48.692;8.948;2023-11-22T01:36:29;5.03;;;4.53;;
72273;SDS011;60208;48.692;8.948;2023-11-22T01:38:54;6.03;;;4.07;;
72273;SDS011;60208;48.692;8.948;2023-11-22T01:41:20;6.07;;;4.53;;
72273;SDS011;60208;48.692;8.948;2023-11-22T01:43:46;4.60;;;4.20;;
72273;SDS011;60208;48.692;8.948;2023-11-22T01:46:21;4.68;;;4.28;;
72273;SDS011;60208;48.692;8.948;2023-11-22T01:48:48;5.70;;;4.30;;
72273;SDS011;60208;48.692;8.948;2023-11-22T01:51:14;5.03;;;4.53;;
72273;SDS011;60208;48.692;8.948;2023-11-22T01:53:39;5.25;;;4.32;;
72273;SDS011;60208;48.692;8.948;2023-11-22T01:56:05;4.13;;;3.72;;
72273;SDS011;60208;48.692;8.948;2023-11-22T01:58:30;4.15;;;3.75;;
72273;SDS011;60208;48.692;8.948;2023-11-22T02:00:56;4.68;;;4.00;;
72273;SDS011;60208;48.692;8.948;2023-11-22T02:03:23;4.32;;;3.92;;
72273;SDS011;60208;48.692;8.948;2023-11-22T02:05:48;4.35;;;3.95;;
72273;SDS011;60208;48.692;8.948;2023-11-22T02:08:15;3.72;;;3.38;;
72273;SDS011;60208;48.692;8.948;2023-11-22T02:10:40;4.85;;;4.05;;
72273;SDS011;60208;48.692;8.948;2023-11-22T02:13:06;4.60;;;3.78;;
72273;SDS011;60208;48.692;8.948;2023-11-22T02:15:36;4.22;;;3.83;;
72273;SDS011;60208;48.692;8.948;2023-11-22T02:18:03;3.97;;;3.53;;
72273;SDS011;60208;48.692;8.948;2023-11-22T02:20:29;5.40;;;3.83;;
72273;SDS011;60208;48.692;8.948;2023-11-22T02:22:55;4.90;;;3.88;;
72273;SDS011;60208;48.692;8.948;2023-11-22T02:25:20;4.93;;;4.07;;
72273;SDS011;60208;48.692;8.948;2023-11-22T02:27:46;4.13;;;3.75;;
72273;SDS011;60208;48.692;8.948;2023-11-22T02:30:11;4.32;;;3.92;;
72273;SDS011;60208;48.692;8.948;2023-11-22T02:32:40;4.80;;;3.92;;
72273;SDS011;60208;48.692;8.948;2023-11-22T02:35:05;4.88;;;3.65;;
72273;SDS011;60208;48.692;8.948;2023-11-22T02:37:34;5.50;;;4.10;;
72273;SDS011;60208;48.692;8.948;2023-11-22T02:40:02;4.65;;;4.18;;
72273;SDS011;60208;48.692;8.948;2023-11-22T02:42:32;5.90;;;4.20;;
72273;SDS011;60208;48.692;8.948;2023-11-22T02:44:58;5.13;;;4.50;;
72273;SDS011;60208;48.692;8.948;2023-11-22T02:47:23;8.98;;;4.72;;
72273;SDS011;60208;48.692;8.948;2023-11-22T02:49:49;5.15;;;4.63;;
72273;SDS011;60208;48.692;8.948;2023-11-22T02:52:14;6.30;;;4.38;;
72273;SDS011;60208;48.692;8.948;2023-11-22T02:54:43;4.78;;;4.28;;
72273;SDS011;60208;48.692;8.948;2023-11-22T02:57:12;5.88;;;4.78;;
72273;SDS011;60208;48.692;8.948;2023-11-22T02:59:41;5.53;;;4.57;;
72273;SDS011;60208;48.692;8.948;2023-11-22T03:02:09;5.47;;;4.78;;
72273;SDS011;60208;48.692;8.948;2023-11-22T03:04:35;5.45;;;4.47;;
72273;SDS011;60208;48.692;8.948;2023-11-22T03:07:00;5.40;;;4.25;;
72273;SDS011;60208;48.692;8.948;2023-11-22T03:09:26;4.90;;;4.38;;
72273;SDS011;60208;48.692;8.948;2023-11-22T03:11:51;6.38;;;4.57;;
72273;SDS011;60208;48.692;8.948;2023-11-22T03:14:17;7.10;;;4.30;;
72273;SDS011;60208;48.692;8.948;2023-11-22T03:16:43;5.90;;;4.60;;
72273;SDS011;60208;48.692;8.948;2023-11-22T03:19:08;5.68;;;4.97;;
72273;SDS011;60208;48.692;8.948;2023-11-22T03:21:35;7.72;;;5.07;;
72273;SDS011;60208;48.692;8.948;2023-11-22T03:24:01;7.38;;;5.05;;
72273;SDS011;60208;48.692;8.948;2023-11-22T03:26:29;7.75;;;4.90;;
72273;SDS011;60208;48.692;8.948;2023-11-22T03:28:54;6.55;;;4.80;;
72273;SDS011;60208;48.692;8.948;2023-11-22T03:31:20;7.30;;;5.05;;
72273;SDS011;60208;48.692;8.948;2023-11-22T03:33:46;7.05;;;5.50;;
72273;SDS011;60208;48.692;8.948;2023-11-22T03:36:12;6.47;;;5.20;;
72273;SDS011;60208;48.692;8.948;2023-11-22T03:38:38;5.72;;;5.13;;
72273;SDS011;60208;48.692;8.948;2023-11-22T03:41:04;5.75;;;5.15;;
72273;SDS011;60208;48.692;8.948;2023-11-22T03:43:30;8.02;;;5.40;;
72273;SDS011;60208;48.692;8.948;2023-11-22T03:45:55;6.68;;;5.15;;
72273;SDS011;60208;48.692;8.948;2023-11-22T03:48:21;8.93;;;5.55;;
72273;SDS011;60208;48.692;8.948;2023-11-22T03:50:48;8.40;;;6.00;;
72273;SDS011;60208;48.692;8.948;2023-11-22T03:53:14;6.80;;;5.70;;
72273;SDS011;60208;48.692;8.948;2023-11-22T03:55:39;6.68;;;5.85;;
72273;SDS011;60208;48.692;8.948;2023-11-22T03:58:04;8.45;;;5.85;;
72273;SDS011;60208;48.692;8.948;2023-11-22T04:00:30;7.35;;;5.57;;
72273;SDS011;60208;48.692;8.948;2023-11-22T04:02:57;6.47;;;5.60;;
72273;SDS011;60208;48.692;8.948;2023-11-22T04:05:25;8.15;;;5.53;;
72273;SDS011;60208;48.692;8.948;2023-11-22T04:07:50;6.40;;;5.38;;
72273;SDS011;60208;48.692;8.948;2023-11-22T04:10:16;6.63;;;5.75;;
72273;SDS011;60208;48.692;8.948;2023-11-22T04:12:42;6.57;;;5.70;;
72273;SDS011;60208;48.692;8.948;2023-11-22T04:15:07;8.45;;;5.85;;
72273;SDS011;60208;48.692;8.948;2023-11-22T04:17:36;7.38;;;6.10;;
72273;SDS011;60208;48.692;8.948;2023-11-22T04:20:05;7.18;;;5.57;;
72273;SDS011;60208;48.692;8.948;2023-11-22T04:22:35;7.75;;;6.15;;
72273;SDS011;60208;48.692;8.948;2023-11-22T04:25:10;7.07;;;5.68;;
72273;SDS011;60208;48.692;8.948;2023-11-22T04:27:38;7.70;;;5.95;;
72273;SDS011;60208;48.692;8.948;2023-11-22T04:30:04;7.35;;;6.10;;
72273;SDS011;60208;48.692;8.948;2023-11-22T04:32:34;6.30;;;5.63;;
72273;SDS011;60208;48.692;8.948;2023-11-22T04:35:01;6.90;;;5.75;;
72273;SDS011;60208;48.692;8.948;2023-11-22T04:37:29;8.20;;;6.22;;
72273;SDS011;60208;48.692;8.948;2023-11-22T04:39:56;7.43;;;5.63;;
72273;SDS011;60208;48.692;8.948;2023-11-22T04:42:22;8.80;;;6.25;;
72273;SDS011;60208;48.692;8.948;2023-11-22T04:44:47;7.18;;;5.90;;
72273;SDS011;60208;48.692;8.948;2023-11-22T04:47:13;6.45;;;5.53;;
72273;SDS011;60208;48.692;8.948;2023-11-22T04:49:38;7.82;;;6.10;;
72273;SDS011;60208;48.692;8.948;2023-11-22T04:52:03;6.13;;;5.53;;
72273;SDS011;60208;48.692;8.948;2023-11-22T04:54:29;6.78;;;5.22;;
72273;SDS011;60208;48.692;8.948;2023-11-22T04:56:54;9.10;;;6.10;;
72273;SDS011;60208;48.692;8.948;2023-11-22T04:59:20;6.50;;;5.40;;
72273;SDS011;60208;48.692;8.948;2023-11-22T05:01:46;6.43;;;5.50;;
72273;SDS011;60208;48.692;8.948;2023-11-22T05:04:11;6.85;;;5.80;;
72273;SDS011;60208;48.692;8.948;2023-11-22T05:06:36;6.80;;;6.00;;
72273;SDS011;60208;48.692;8.948;2023-11-22T05:09:02;6.93;;;5.68;;
72273;SDS011;60208;48.692;8.948;2023-11-22T05:11:27;7.50;;;5.07;;
72273;SDS011;60208;48.692;8.948;2023-11-22T05:13:53;6.10;;;4.95;;
72273;SDS011;60208;48.692;8.948;2023-11-22T05:16:18;5.07;;;4.40;;
72273;SDS011;60208;48.692;8.948;2023-11-22T05:18:43;6.95;;;4.53;;
72273;SDS011;60208;48.692;8.948;2023-11-22T05:21:09;6.05;;;4.40;;
72273;SDS011;60208;48.692;8.948;2023-11-22T05:23:34;6.97;;;4.95;;
72273;SDS011;60208;48.692;8.948;2023-11-22T05:26:02;7.13;;;5.47;;
72273;SDS011;60208;48.692;8.948;2023-11-22T05:28:30;5.57;;;4.93;;
72273;SDS011;60208;48.692;8.948;2023-11-22T05:30:55;6.18;;;5.20;;
72273;SDS011;60208;48.692;8.948;2023-11-22T05:33:21;5.85;;;4.93;;
72273;SDS011;60208;48.692;8.948;2023-11-22T05:35:47;4.60;;;4.07;;
72273;SDS011;60208;48.692;8.948;2023-11-22T05:38:13;6.57;;;4.57;;
72273;SDS011;60208;48.692;8.948;2023-11-22T05:40:38;6.18;;;4.25;;
72273;SDS011;60208;48.692;8.948;2023-11-22T05:43:04;4.85;;;4.22;;
72273;SDS011;60208;48.692;8.948;2023-11-22T05:45:29;6.80;;;4.80;;
72273;SDS011;60208;48.692;8.948;2023-11-22T05:47:55;5.13;;;4.10;;
72273;SDS011;60208;48.692;8.948;2023-11-22T05:50:20;6.05;;;4.40;;
72273;SDS011;60208;48.692;8.948;2023-11-22T05:52:46;4.93;;;4.30;;
72273;SDS011;60208;48.692;8.948;2023-11-22T05:55:11;5.20;;;4.28;;
72273;SDS011;60208;48.692;8.948;2023-11-22T05:57:39;4.50;;;4.00;;
72273;SDS011;60208;48.692;8.948;2023-11-22T06:00:05;6.10;;;4.20;;
72273;SDS011;60208;48.692;8.948;2023-11-22T06:02:31;9.23;;;6.57;;
72273;SDS011;60208;48.692;8.948;2023-11-22T06:04:57;6.35;;;5.30;;
72273;SDS011;60208;48.692;8.948;2023-11-22T06:07:22;7.00;;;4.93;;
72273;SDS011;60208;48.692;8.948;2023-11-22T06:09:47;5.15;;;4.10;;
72273;SDS011;60208;48.692;8.948;2023-11-22T06:12:13;5.50;;;4.60;;
72273;SDS011;60208;48.692;8.948;2023-11-22T06:14:39;6.97;;;4.10;;
72273;SDS011;60208;48.692;8.948;2023-11-22T06:17:04;7.63;;;4.35;;
72273;SDS011;60208;48.692;8.948;2023-11-22T06:19:30;5.95;;;4.75;;
72273;SDS011;60208;48.692;8.948;2023-11-22T06:21:55;5.75;;;4.28;;
72273;SDS011;60208;48.692;8.948;2023-11-22T06:24:21;7.75;;;4.63;;
72273;SDS011;60208;48.692;8.948;2023-11-22T06:26:46;7.32;;;5.00;;
72273;SDS011;60208;48.692;8.948;2023-11-22T06:29:12;6.05;;;4.32;;
72273;SDS011;60208;48.692;8.948;2023-11-22T06:31:37;7.68;;;4.55;;
72273;SDS011;60208;48.692;8.948;2023-11-22T06:34:03;4.78;;;4.10;;
72273;SDS011;60208;48.692;8.948;2023-11-22T06:36:28;6.57;;;4.43;;
72273;SDS011;60208;48.692;8.948;2023-11-22T06:38:54;6.03;;;4.15;;
72273;SDS011;60208;48.692;8.948;2023-11-22T06:41:20;6.18;;;4.20;;
72273;SDS011;60208;48.692;8.948;2023-11-22T06:43:46;4.45;;;4.05;;
72273;SDS011;60208;48.692;8.948;2023-11-22T06:46:13;5.97;;;4.38;;
72273;SDS011;60208;48.692;8.948;2023-11-22T06:48:41;5.97;;;4.45;;
72273;SDS011;60208;48.692;8.948;2023-11-22T06:51:08;5.72;;;4.10;;
72273;SDS011;60208;48.692;8.948;2023-11-22T06:53:34;6.40;;;4.70;;
72273;SDS011;60208;48.692;8.948;2023-11-22T06:56:01;6.93;;;4.35;;
72273;SDS011;60208;48.692;8.948;2023-11-22T06:58:26;6.35;;;4.35;;
72273;SDS011;60208;48.692;8.948;2023-11-22T07:00:52;8.13;;;4.00;;
72273;SDS011;60208;48.692;8.948;2023-11-22T07:03:18;5.57;;;3.78;;
72273;SDS011;60208;48.692;8.948;2023-11-22T07:05:43;5.78;;;4.20;;
72273;SDS011;60208;48.692;8.948;2023-11-22T07:08:10;6.82;;;4.40;;
72273;SDS011;60208;48.692;8.948;2023-11-22T07:10:36;6.32;;;4.43;;
72273;SDS011;60208;48.692;8.948;2023-11-22T07:13:02;6.50;;;4.10;;
72273;SDS011;60208;48.692;8.948;2023-11-22T07:15:28;4.65;;;3.90;;
72273;SDS011;60208;48.692;8.948;2023-11-22T07:17:53;4.45;;;4.05;;
72273;SDS011;60208;48.692;8.948;2023-11-22T07:20:19;4.05;;;3.65;;
72273;SDS011;60208;48.692;8.948;2023-11-22T07:22:45;5.15;;;4.47;;
72273;SDS011;60208;48.692;8.948;2023-11-22T07:25:23;5.45;;;4.53;;
72273;SDS011;60208;48.692;8.948;2023-11-22T07:28:09;4.95;;;4.38;;
72273;SDS011;60208;48.692;8.948;2023-11-22T07:30:35;4.65;;;3.92;;
72273;SDS011;60208;48.692;8.948;2023-11-22T07:33:03;5.93;;;4.53;;
72273;SDS011;60208;48.692;8.948;2023-11-22T07:35:30;6.13;;;4.43;;
72273;SDS011;60208;48.692;8.948;2023-11-22T07:37:56;6.50;;;4.47;;
72273;SDS011;60208;48.692;8.948;2023-11-22T07:40:22;6.30;;;3.95;;
72273;SDS011;60208;48.692;8.948;2023-11-22T07:42:48;5.00;;;3.47;;
72273;SDS011;60208;48.692;8.948;2023-11-22T07:45:14;5.05;;;3.60;;
72273;SDS011;60208;48.692;8.948;2023-11-22T07:47:39;5.05;;;3.20;;
72273;SDS011;60208;48.692;8.948;2023-11-22T07:50:10;4.70;;;3.35;;
72273;SDS011;60208;48.692;8.948;2023-11-22T07:52:36;5.00;;;3.42;;
72273;SDS011;60208;48.692;8.948;2023-11-22T07:55:03;4.28;;;3.45;;
72273;SDS011;60208;48.692;8.948;2023-11-22T07:57:30;4.13;;;3.45;;
72273;SDS011;60208;48.692;8.948;2023-11-22T07:59:56;5.00;;;3.10;;
72273;SDS011;60208;48.692;8.948;2023-11-22T08:02:22;4.57;;;3.17;;
72273;SDS011;60208;48.692;8.948;2023-11-22T08:04:48;3.45;;;3.03;;
72273;SDS011;60208;48.692;8.948;2023-11-22T08:07:15;5.03;;;3.28;;
72273;SDS011;60208;48.692;8.948;2023-11-22T08:09:41;5.20;;;3.40;;
72273;SDS011;60208;48.692;8.948;2023-11-22T08:12:08;3.55;;;3.00;;
72273;SDS011;60208;48.692;8.948;2023-11-22T08:14:36;6.13;;;3.50;;
72273;SDS011;60208;48.692;8.948;2023-11-22T08:17:02;6.80;;;3.60;;
72273;SDS011;60208;48.692;8.948;2023-11-22T08:19:28;4.93;;;2.97;;
72273;SDS011;60208;48.692;8.948;2023-11-22T08:21:54;5.57;;;3.60;;
72273;SDS011;60208;48.692;8.948;2023-11-22T08:24:21;4.63;;;3.05;;
72273;SDS011;60208;48.692;8.948;2023-11-22T08:26:47;5.28;;;3.65;;
72273;SDS011;60208;48.692;8.948;2023-11-22T08:29:13;3.75;;;3.33;;
72273;SDS011;60208;48.692;8.948;2023-11-22T08:31:39;4.40;;;3.50;;
72273;SDS011;60208;48.692;8.948;2023-11-22T08:34:05;5.75;;;3.40;;
72273;SDS011;60208;48.692;8.948;2023-11-22T08:36:32;5.70;;;3.28;;
72273;SDS011;60208;48.692;8.948;2023-11-22T08:39:00;5.57;;;3.40;;
72273;SDS011;60208;48.692;8.948;2023-11-22T08:41:29;7.65;;;4.05;;
72273;SDS011;60208;48.692;8.948;2023-11-22T08:43:55;7.10;;;5.10;;
72273;SDS011;60208;48.692;8.948;2023-11-22T08:46:21;5.90;;;4.78;;
72273;SDS011;60208;48.692;8.948;2023-11-22T08:48:48;4.43;;;3.45;;
72273;SDS011;60208;48.692;8.948;2023-11-22T08:51:14;5.07;;;3.42;;
72273;SDS011;60208;48.692;8.948;2023-11-22T08:53:40;7.22;;;3.42;;
72273;SDS011;60208;48.692;8.948;2023-11-22T08:56:05;6.22;;;3.47;;
72273;SDS011;60208;48.692;8.948;2023-11-22T08:58:33;6.65;;;3.53;;
72273;SDS011;60208;48.692;8.948;2023-11-22T09:00:59;3.50;;;3.00;;
72273;SDS011;60208;48.692;8.948;2023-11-22T09:03:24;4.80;;;3.38;;
72273;SDS011;60208;48.692;8.948;2023-11-22T09:05:50;7.22;;;3.63;;
72273;SDS011;60208;48.692;8.948;2023-11-22T09:08:17;5.97;;;4.00;;
72273;SDS011;60208;48.692;8.948;2023-11-22T09:10:43;7.93;;;3.75;;
72273;SDS011;60208;48.692;8.948;2023-11-22T09:13:10;6.53;;;3.92;;
72273;SDS011;60208;48.692;8.948;2023-11-22T09:15:36;6.40;;;4.03;;
72273;SDS011;60208;48.692;8.948;2023-11-22T09:18:03;5.82;;;3.80;;
72273;SDS011;60208;48.692;8.948;2023-11-22T09:20:29;6.53;;;3.70;;
72273;SDS011;60208;48.692;8.948;2023-11-22T09:22:54;7.53;;;4.00;;
72273;SDS011;60208;48.692;8.948;2023-11-22T09:25:20;4.68;;;3.55;;
72273;SDS011;60208;48.692;8.948;2023-11-22T09:27:48;7.78;;;4.00;;
72273;SDS011;60208;48.692;8.948;2023-11-22T09:30:16;4.90;;;3.40;;
72273;SDS011;60208;48.692;8.948;2023-11-22T09:33:03;5.68;;;3.65;;
72273;SDS011;60208;48.692;8.948;2023-11-22T09:35:29;4.90;;;3.60;;
72273;SDS011;60208;48.692;8.948;2023-11-22T09:37:56;5.38;;;3.80;;
72273;SDS011;60208;48.692;8.948;2023-11-22T09:40:24;6.20;;;4.05;;
72273;SDS011;60208;48.692;8.948;2023-11-22T09:42:52;7.95;;;4.18;;
72273;SDS011;60208;48.692;8.948;2023-11-22T09:45:18;7.82;;;3.90;;
72273;SDS011;60208;48.692;8.948;2023-11-22T09:47:46;7.80;;;4.20;;
72273;SDS011;60208;48.692;8.948;2023-11-22T09:50:19;6.07;;;4.45;;
72273;SDS011;60208;48.692;8.948;2023-11-22T09:52:47;4.30;;;3.72;;
72273;SDS011;60208;48.692;8.948;2023-11-22T09:55:15;7.18;;;3.80;;
72273;SDS011;60208;48.692;8.948;2023-11-22T09:57:42;5.93;;;3.63;;
72273;SDS011;60208;48.692;8.948;2023-11-22T10:00:08;6.28;;;3.80;;
72273;SDS011;60208;48.692;8.948;2023-11-22T10:02:39;6.68;;;3.90;;
72273;SDS011;60208;48.692;8.948;2023-11-22T10:05:05;5.32;;;4.10;;
72273;SDS011;60208;48.692;8.948;2023-11-22T10:07:31;6.78;;;3.80;;
72273;SDS011;60208;48.692;8.948;2023-11-22T10:09:57;6.47;;;3.92;;
72273;SDS011;60208;48.692;8.948;2023-11-22T10:12:29;7.20;;;4.13;;
72273;SDS011;60208;48.692;8.948;2023-11-22T10:14:54;8.50;;;4.07;;
72273;SDS011;60208;48.692;8.948;2023-11-22T10:17:22;7.28;;;4.15;;
72273;SDS011;60208;48.692;8.948;2023-11-22T10:19:47;4.82;;;4.07;;
72273;SDS011;60208;48.692;8.948;2023-11-22T10:22:12;8.60;;;4.70;;
72273;SDS011;60208;48.692;8.948;2023-11-22T10:24:42;7.63;;;4.00;;
72273;SDS011;60208;48.692;8.948;2023-11-22T10:27:08;7.07;;;4.30;;
72273;SDS011;60208;48.692;8.948;2023-11-22T10:29:35;5.85;;;3.95;;
72273;SDS011;60208;48.692;8.948;2023-11-22T10:32:01;6.65;;;3.97;;
72273;SDS011;60208;48.692;8.948;2023-11-22T10:34:28;6.90;;;4.32;;
72273;SDS011;60208;48.692;8.948;2023-11-22T10:36:55;6.93;;;5.18;;
72273;SDS011;60208;48.692;8.948;2023-11-22T10:39:21;6.88;;;4.70;;
72273;SDS011;60208;48.692;8.948;2023-11-22T10:41:47;7.15;;;4.80;;
72273;SDS011;60208;48.692;8.948;2023-11-22T10:44:13;7.78;;;4.78;;
72273;SDS011;60208;48.692;8.948;2023-11-22T10:46:44;5.50;;;4.70;;
72273;SDS011;60208;48.692;8.948;2023-11-22T10:49:10;6.18;;;4.60;;
72273;SDS011;60208;48.692;8.948;2023-11-22T10:51:35;5.38;;;4.32;;
72273;SDS011;60208;48.692;8.948;2023-11-22T10:54:05;5.82;;;4.50;;
72273;SDS011;60208;48.692;8.948;2023-11-22T10:56:39;6.07;;;4.60;;
72273;SDS011;60208;48.692;8.948;2023-11-22T10:59:13;5.30;;;4.15;;
72273;SDS011;60208;48.692;8.948;2023-11-22T11:01:40;7.55;;;4.88;;
72273;SDS011;60208;48.692;8.948;2023-11-22T11:04:20;6.22;;;4.63;;
72273;SDS011;60208;48.692;8.948;2023-11-22T11:06:54;6.70;;;4.65;;
72273;SDS011;60208;48.692;8.948;2023-11-22T11:09:23;7.10;;;4.88;;
72273;SDS011;60208;48.692;8.948;2023-11-22T11:11:54;6.80;;;4.63;;
72273;SDS011;60208;48.692;8.948;2023-11-22T11:14:22;5.70;;;4.60;;
72273;SDS011;60208;48.692;8.948;2023-11-22T11:16:47;6.97;;;5.10;;
72273;SDS011;60208;48.692;8.948;2023-11-22T11:19:15;7.03;;;5.05;;
72273;SDS011;60208;48.692;8.948;2023-11-22T11:21:42;8.55;;;4.80;;
72273;SDS011;60208;48.692;8.948;2023-11-22T11:24:08;6.90;;;4.82;;
72273;SDS011;60208;48.692;8.948;2023-11-22T11:26:33;7.40;;;4.90;;
72273;SDS011;60208;48.692;8.948;2023-11-22T11:29:02;8.20;;;5.30;;
72273;SDS011;60208;48.692;8.948;2023-11-22T11:31:32;7.25;;;5.28;;
72273;SDS011;60208;48.692;8.948;2023-11-22T11:34:00;9.35;;;5.20;;
72273;SDS011;60208;48.692;8.948;2023-11-22T11:36:27;6.47;;;5.03;;
72273;SDS011;60208;48.692;8.948;2023-11-22T11:38:56;6.40;;;4.60;;
72273;SDS011;60208;48.692;8.948;2023-11-22T11:41:33;8.20;;;5.25;;
72273;SDS011;60208;48.692;8.948;2023-11-22T11:44:00;7.80;;;4.95;;
72273;SDS011;60208;48.692;8.948;2023-11-22T11:46:28;10.35;;;4.70;;
72273;SDS011;60208;48.692;8.948;2023-11-22T11:48:55;8.25;;;4.82;;
72273;SDS011;60208;48.692;8.948;2023-11-22T11:51:22;7.07;;;4.85;;
72273;SDS011;60208;48.692;8.948;2023-11-22T11:53:49;9.05;;;5.10;;
72273;SDS011;60208;48.692;8.948;2023-11-22T11:56:15;8.38;;;5.10;;
72273;SDS011;60208;48.692;8.948;2023-11-22T11:58:43;8.35;;;5.20;;
72273;SDS011;60208;48.692;8.948;2023-11-22T12:01:11;6.35;;;5.20;;
72273;SDS011;60208;48.692;8.948;2023-11-22T12:03:40;6.70;;;5.03;;
72273;SDS011;60208;48.692;8.948;2023-11-22T12:06:06;11.65;;;5.78;;
72273;SDS011;60208;48.692;8.948;2023-11-22T12:08:33;13.57;;;5.40;;
72273;SDS011;60208;48.692;8.948;2023-11-22T12:11:02;8.40;;;5.88;;
72273;SDS011;60208;48.692;8.948;2023-11-22T12:13:38;11.48;;;5.63;;
72273;SDS011;60208;48.692;8.948;2023-11-22T12:16:06;8.85;;;5.45;;
72273;SDS011;60208;48.692;8.948;2023-11-22T12:18:42;9.30;;;5.60;;
72273;SDS011;60208;48.692;8.948;2023-11-22T12:21:14;8.80;;;5.80;;
72273;SDS011;60208;48.692;8.948;2023-11-22T12:23:41;8.60;;;5.18;;
72273;SDS011;60208;48.692;8.948;2023-11-22T12:26:14;8.93;;;5.53;;
72273;SDS011;60208;48.692;8.948;2023-11-22T12:31:10;12.38;;;6.05;;
72273;SDS011;60208;48.692;8.948;2023-11-22T12:33:37;7.60;;;5.50;;
72273;SDS011;60208;48.692;8.948;2023-11-22T12:36:03;7.50;;;5.53;;
72273;SDS011;60208;48.692;8.948;2023-11-22T12:38:29;6.70;;;5.20;;
72273;SDS011;60208;48.692;8.948;2023-11-22T12:40:56;7.55;;;5.30;;
72273;SDS011;60208;48.692;8.948;2023-11-22T12:43:22;6.40;;;4.72;;
72273;SDS011;60208;48.692;8.948;2023-11-22T12:46:12;9.27;;;5.47;;
72273;SDS011;60208;48.692;8.948;2023-11-22T12:48:40;10.20;;;5.63;;
72273;SDS011;60208;48.692;8.948;2023-11-22T12:51:16;7.40;;;5.75;;
72273;SDS011;60208;48.692;8.948;2023-11-22T12:53:46;8.95;;;5.57;;
72273;SDS011;60208;48.692;8.948;2023-11-22T12:56:13;9.68;;;5.55;;
72273;SDS011;60208;48.692;8.948;2023-11-22T12:58:45;8.25;;;5.70;;
72273;SDS011;60208;48.692;8.948;2023-11-22T13:01:10;9.82;;;5.10;;
72273;SDS011;60208;48.692;8.948;2023-11-22T13:03:35;9.50;;;5.78;;
72273;SDS011;60208;48.692;8.948;2023-11-22T13:06:01;8.13;;;5.55;;
72273;SDS011;60208;48.692;8.948;2023-11-22T13:08:26;9.57;;;5.60;;
72273;SDS011;60208;48.692;8.948;2023-11-22T13:10:54;11.80;;;5.78;;
72273;SDS011;60208;48.692;8.948;2023-11-22T13:13:22;10.82;;;5.88;;
72273;SDS011;60208;48.692;8.948;2023-11-22T13:15:48;7.50;;;5.72;;
72273;SDS011;60208;48.692;8.948;2023-11-22T13:18:14;7.55;;;5.70;;
72273;SDS011;60208;48.692;8.948;2023-11-22T13:20:43;9.63;;;5.75;;
72273;SDS011;60208;48.692;8.948;2023-11-22T13:23:09;13.35;;;7.88;;
72273;SDS011;60208;48.692;8.948;2023-11-22T13:25:35;8.90;;;6.72;;
72273;SDS011;60208;48.692;8.948;2023-11-22T13:28:01;8.73;;;5.95;;
72273;SDS011;60208;48.692;8.948;2023-11-22T13:30:27;7.20;;;6.05;;
72273;SDS011;60208;48.692;8.948;2023-11-22T13:32:53;7.10;;;5.35;;
72273;SDS011;60208;48.692;8.948;2023-11-22T13:35:21;6.60;;;5.30;;
72273;SDS011;60208;48.692;8.948;2023-11-22T13:37:47;7.30;;;5.50;;
72273;SDS011;60208;48.692;8.948;2023-11-22T13:40:14;7.03;;;5.63;;
72273;SDS011;60208;48.692;8.948;2023-11-22T13:42:45;7.07;;;5.75;;
72273;SDS011;60208;48.692;8.948;2023-11-22T13:45:11;7.35;;;5.75;;
72273;SDS011;60208;48.692;8.948;2023-11-22T13:47:45;8.63;;;6.10;;
72273;SDS011;60208;48.692;8.948;2023-11-22T13:50:14;9.43;;;5.43;;
72273;SDS011;60208;48.692;8.948;2023-11-22T13:52:46;7.88;;;5.53;;
72273;SDS011;60208;48.692;8.948;2023-11-22T13:55:13;9.40;;;5.85;;
72273;SDS011;60208;48.692;8.948;2023-11-22T13:57:41;7.85;;;6.10;;
72273;SDS011;60208;48.692;8.948;2023-11-22T14:00:07;11.75;;;5.35;;
72273;SDS011;60208;48.692;8.948;2023-11-22T14:02:38;6.03;;;5.15;;
72273;SDS011;60208;48.692;8.948;2023-11-22T14:05:05;7.65;;;5.63;;
72273;SDS011;60208;48.692;8.948;2023-11-22T14:07:37;10.05;;;7.18;;
72273;SDS011;60208;48.692;8.948;2023-11-22T14:10:03;8.98;;;6.57;;
72273;SDS011;60208;48.692;8.948;2023-11-22T14:12:29;8.43;;;5.68;;
72273;SDS011;60208;48.692;8.948;2023-11-22T14:14:56;7.93;;;5.75;;
72273;SDS011;60208;48.692;8.948;2023-11-22T14:17:22;8.57;;;5.47;;
72273;SDS011;60208;48.692;8.948;2023-11-22T14:19:48;7.88;;;5.95;;
72273;SDS011;60208;48.692;8.948;2023-11-22T14:22:14;8.00;;;5.60;;
72273;SDS011;60208;48.692;8.948;2023-11-22T14:24:40;6.13;;;5.30;;
72273;SDS011;60208;48.692;8.948;2023-11-22T14:27:05;6.70;;;5.57;;
72273;SDS011;60208;48.692;8.948;2023-11-22T14:29:31;7.43;;;5.85;;
72273;SDS011;60208;48.692;8.948;2023-11-22T14:31:58;7.63;;;5.50;;
72273;SDS011;60208;48.692;8.948;2023-11-22T14:34:23;8.93;;;5.85;;
72273;SDS011;60208;48.692;8.948;2023-11-22T14:36:49;6.65;;;5.20;;
72273;SDS011;60208;48.692;8.948;2023-11-22T14:39:14;8.13;;;5.90;;
72273;SDS011;60208;48.692;8.948;2023-11-22T14:41:41;7.45;;;5.45;;
72273;SDS011;60208;48.692;8.948;2023-11-22T14:44:06;7.00;;;5.25;;
72273;SDS011;60208;48.692;8.948;2023-11-22T14:46:35;7.97;;;5.30;;
72273;SDS011;60208;48.692;8.948;2023-11-22T14:49:02;7.50;;;5.53;;